Portada
METAR-TAF:

METAR-TAF

Aeroports :

Cabo Frio, Rio de Janeiro, Brasil

latitud: 22-55-15S, longitud: 042-04-17W, altitud: 7 m

Observació

L'informe es va fer fa 19 minuts, a les 21:00 UTC
Vent 12 kt del Nord-Est
Temperatura 22°C
Humitat 73%
Pressió 1025 hPa
Visibilitat 10 km o més
sense núvols per sota de 1500 mi sense presència de cumulonimbus.

METAR: SBCB 072100Z 05012KT CAVOK 22/17 Q1025

Hora: 18:19 (21:19 UTC)

Pronòstic

L'informe es va fer fa 6 hores i 19 minuts, a les 15:00 UTC
Pronòstic vàlid del 07 a les 18 UTC al 08 a les 06 UTC
Vent 6 kt del Oest
Visibilitat 10 km o més
sense núvols per sota de 1500 mi sense presència de cumulonimbus.

TAF: SBCB 071500Z 0718/0806 26006KT CAVOK TX27/0718Z TN22/0805Z RMK PEA

Observacions i pronòstics meteorològics de més de 4000 aeroports (METAR i TAF).

Les estacions disponibles són els punts grocs i vermells al mapa.

Posi el ratolí al punt desitjat per veure el nom de l'estació.

Feu clic per veure les observacions i els pronòstics meteorològics.

Per canviar el mapa: feu clic els botons verds amb una creu de color negre per apropar; al botó verd amb un guió per allunyar la imatge; o en les fletxes verdes per a mapes adjacents.


METAR-TAF: